sensor_id;sensor_type;location;lat;lon;timestamp;temperature;humidity
30308;DHT22;17114;52.314;8.910;2022-11-15T00:00:36;9.30;99.90
30308;DHT22;17114;52.314;8.910;2022-11-15T00:03:03;9.30;99.90
30308;DHT22;17114;52.314;8.910;2022-11-15T00:05:33;9.40;99.90
30308;DHT22;17114;52.314;8.910;2022-11-15T00:08:01;9.40;99.90
30308;DHT22;17114;52.314;8.910;2022-11-15T00:10:28;9.40;99.90
30308;DHT22;17114;52.314;8.910;2022-11-15T00:12:55;9.40;99.90
30308;DHT22;17114;52.314;8.910;2022-11-15T00:15:22;9.40;99.90
30308;DHT22;17114;52.314;8.910;2022-11-15T00:17:49;9.40;99.90
30308;DHT22;17114;52.314;8.910;2022-11-15T00:20:17;9.40;99.90
30308;DHT22;17114;52.314;8.910;2022-11-15T00:22:44;9.40;99.90
30308;DHT22;17114;52.314;8.910;2022-11-15T00:25:11;9.50;99.90
30308;DHT22;17114;52.314;8.910;2022-11-15T00:27:38;9.50;99.90
30308;DHT22;17114;52.314;8.910;2022-11-15T00:30:05;9.60;99.90
30308;DHT22;17114;52.314;8.910;2022-11-15T00:32:33;9.60;99.90
30308;DHT22;17114;52.314;8.910;2022-11-15T00:35:00;9.70;99.90
30308;DHT22;17114;52.314;8.910;2022-11-15T00:37:27;9.70;99.90
30308;DHT22;17114;52.314;8.910;2022-11-15T00:39:54;9.70;99.90
30308;DHT22;17114;52.314;8.910;2022-11-15T00:42:20;9.70;99.90
30308;DHT22;17114;52.314;8.910;2022-11-15T00:44:47;9.80;99.90
30308;DHT22;17114;52.314;8.910;2022-11-15T00:47:15;9.80;99.90
30308;DHT22;17114;52.314;8.910;2022-11-15T00:49:42;9.80;99.90
30308;DHT22;17114;52.314;8.910;2022-11-15T00:52:09;9.80;99.90
30308;DHT22;17114;52.314;8.910;2022-11-15T00:54:35;9.80;99.90
30308;DHT22;17114;52.314;8.910;2022-11-15T00:57:02;9.80;99.90
30308;DHT22;17114;52.314;8.910;2022-11-15T00:59:29;9.70;99.90
30308;DHT22;17114;52.314;8.910;2022-11-15T01:01:56;9.80;99.90
30308;DHT22;17114;52.314;8.910;2022-11-15T01:04:23;9.80;99.90
30308;DHT22;17114;52.314;8.910;2022-11-15T01:06:50;9.80;99.90
30308;DHT22;17114;52.314;8.910;2022-11-15T01:09:17;9.80;99.90
30308;DHT22;17114;52.314;8.910;2022-11-15T01:11:44;9.90;99.90
30308;DHT22;17114;52.314;8.910;2022-11-15T01:14:11;9.90;99.90
30308;DHT22;17114;52.314;8.910;2022-11-15T01:16:38;9.90;99.90
30308;DHT22;17114;52.314;8.910;2022-11-15T01:19:05;9.90;99.90
30308;DHT22;17114;52.314;8.910;2022-11-15T01:21:32;9.90;99.90
30308;DHT22;17114;52.314;8.910;2022-11-15T01:23:59;10.00;99.90
30308;DHT22;17114;52.314;8.910;2022-11-15T01:26:26;10.00;99.90
30308;DHT22;17114;52.314;8.910;2022-11-15T01:28:53;10.00;99.90
30308;DHT22;17114;52.314;8.910;2022-11-15T01:31:20;10.10;99.90
30308;DHT22;17114;52.314;8.910;2022-11-15T01:33:47;10.10;99.90
30308;DHT22;17114;52.314;8.910;2022-11-15T01:36:18;10.20;99.90
30308;DHT22;17114;52.314;8.910;2022-11-15T01:38:45;10.20;99.90
30308;DHT22;17114;52.314;8.910;2022-11-15T01:41:16;10.20;99.90
30308;DHT22;17114;52.314;8.910;2022-11-15T01:43:44;10.30;99.90
30308;DHT22;17114;52.314;8.910;2022-11-15T01:48:38;10.20;99.90
30308;DHT22;17114;52.314;8.910;2022-11-15T01:51:09;10.30;99.90
30308;DHT22;17114;52.314;8.910;2022-11-15T01:53:38;10.40;99.90
30308;DHT22;17114;52.314;8.910;2022-11-15T01:56:08;10.40;99.90
30308;DHT22;17114;52.314;8.910;2022-11-15T01:58:36;10.40;99.90
30308;DHT22;17114;52.314;8.910;2022-11-15T02:01:03;10.50;99.90
30308;DHT22;17114;52.314;8.910;2022-11-15T02:03:53;10.50;99.90
30308;DHT22;17114;52.314;8.910;2022-11-15T02:06:17;10.50;99.90
30308;DHT22;17114;52.314;8.910;2022-11-15T02:08:45;10.60;99.90
30308;DHT22;17114;52.314;8.910;2022-11-15T02:11:12;10.60;99.90
30308;DHT22;17114;52.314;8.910;2022-11-15T02:13:39;10.60;99.90
30308;DHT22;17114;52.314;8.910;2022-11-15T02:16:20;10.60;99.90
30308;DHT22;17114;52.314;8.910;2022-11-15T02:18:57;10.70;99.90
30308;DHT22;17114;52.314;8.910;2022-11-15T02:26:45;10.70;99.90
30308;DHT22;17114;52.314;8.910;2022-11-15T02:34:43;10.90;99.90
30308;DHT22;17114;52.314;8.910;2022-11-15T02:37:37;10.90;99.90
30308;DHT22;17114;52.314;8.910;2022-11-15T02:40:04;10.90;99.90
30308;DHT22;17114;52.314;8.910;2022-11-15T02:42:36;10.90;99.90
30308;DHT22;17114;52.314;8.910;2022-11-15T02:45:33;10.90;99.90
30308;DHT22;17114;52.314;8.910;2022-11-15T02:48:02;11.00;99.90
30308;DHT22;17114;52.314;8.910;2022-11-15T02:50:30;11.00;99.90
30308;DHT22;17114;52.314;8.910;2022-11-15T02:52:59;11.10;99.90
30308;DHT22;17114;52.314;8.910;2022-11-15T02:55:30;11.10;99.90
30308;DHT22;17114;52.314;8.910;2022-11-15T03:00:25;11.20;99.90
30308;DHT22;17114;52.314;8.910;2022-11-15T03:10:18;11.20;99.90
30308;DHT22;17114;52.314;8.910;2022-11-15T03:15:21;11.20;99.90
30308;DHT22;17114;52.314;8.910;2022-11-15T03:17:55;11.30;99.90
30308;DHT22;17114;52.314;8.910;2022-11-15T03:20:24;11.30;99.90
30308;DHT22;17114;52.314;8.910;2022-11-15T03:22:52;11.30;99.90
30308;DHT22;17114;52.314;8.910;2022-11-15T03:25:22;11.30;99.90
30308;DHT22;17114;52.314;8.910;2022-11-15T03:27:51;11.30;99.90
30308;DHT22;17114;52.314;8.910;2022-11-15T03:30:19;11.30;99.90
30308;DHT22;17114;52.314;8.910;2022-11-15T03:32:58;11.30;99.90
30308;DHT22;17114;52.314;8.910;2022-11-15T03:35:27;11.40;99.90
30308;DHT22;17114;52.314;8.910;2022-11-15T03:37:57;11.40;99.90
30308;DHT22;17114;52.314;8.910;2022-11-15T03:40:29;11.40;99.90
30308;DHT22;17114;52.314;8.910;2022-11-15T03:43:02;11.40;99.90
30308;DHT22;17114;52.314;8.910;2022-11-15T03:45:35;11.40;99.90
30308;DHT22;17114;52.314;8.910;2022-11-15T03:50:39;11.40;99.90
30308;DHT22;17114;52.314;8.910;2022-11-15T03:53:06;11.40;99.90
30308;DHT22;17114;52.314;8.910;2022-11-15T03:55:33;11.50;99.90
30308;DHT22;17114;52.314;8.910;2022-11-15T03:58:00;11.50;99.90
30308;DHT22;17114;52.314;8.910;2022-11-15T04:00:27;11.50;99.90
30308;DHT22;17114;52.314;8.910;2022-11-15T04:02:55;11.50;99.90
30308;DHT22;17114;52.314;8.910;2022-11-15T04:05:27;11.50;99.90
30308;DHT22;17114;52.314;8.910;2022-11-15T04:07:53;11.50;99.90
30308;DHT22;17114;52.314;8.910;2022-11-15T04:10:20;11.50;99.90
30308;DHT22;17114;52.314;8.910;2022-11-15T04:12:47;11.50;99.90
30308;DHT22;17114;52.314;8.910;2022-11-15T04:15:20;11.50;99.90
30308;DHT22;17114;52.314;8.910;2022-11-15T04:17:51;11.50;99.90
30308;DHT22;17114;52.314;8.910;2022-11-15T04:20:22;11.60;99.90
30308;DHT22;17114;52.314;8.910;2022-11-15T04:23:24;11.60;99.90
30308;DHT22;17114;52.314;8.910;2022-11-15T04:26:11;11.60;99.90
30308;DHT22;17114;52.314;8.910;2022-11-15T04:28:40;11.60;99.90
30308;DHT22;17114;52.314;8.910;2022-11-15T04:31:26;11.60;99.90
30308;DHT22;17114;52.314;8.910;2022-11-15T04:33:53;11.60;99.90
30308;DHT22;17114;52.314;8.910;2022-11-15T04:36:21;11.60;99.90
30308;DHT22;17114;52.314;8.910;2022-11-15T04:39:07;11.70;99.90
30308;DHT22;17114;52.314;8.910;2022-11-15T04:41:34;11.70;99.90
30308;DHT22;17114;52.314;8.910;2022-11-15T04:44:01;11.70;99.90
30308;DHT22;17114;52.314;8.910;2022-11-15T04:46:28;11.70;99.90
30308;DHT22;17114;52.314;8.910;2022-11-15T04:48:55;11.70;99.90
30308;DHT22;17114;52.314;8.910;2022-11-15T04:51:24;11.80;99.90
30308;DHT22;17114;52.314;8.910;2022-11-15T04:53:51;11.80;99.90
30308;DHT22;17114;52.314;8.910;2022-11-15T04:56:19;11.80;99.90
30308;DHT22;17114;52.314;8.910;2022-11-15T04:58:48;11.80;99.90
30308;DHT22;17114;52.314;8.910;2022-11-15T05:01:15;11.80;99.90
30308;DHT22;17114;52.314;8.910;2022-11-15T05:03:42;11.70;99.90
30308;DHT22;17114;52.314;8.910;2022-11-15T05:06:28;11.70;99.90
30308;DHT22;17114;52.314;8.910;2022-11-15T05:08:55;11.70;99.90
30308;DHT22;17114;52.314;8.910;2022-11-15T05:11:22;11.70;99.90
30308;DHT22;17114;52.314;8.910;2022-11-15T05:13:49;11.70;99.90
30308;DHT22;17114;52.314;8.910;2022-11-15T05:16:16;11.70;99.90
30308;DHT22;17114;52.314;8.910;2022-11-15T05:18:43;11.60;99.90
30308;DHT22;17114;52.314;8.910;2022-11-15T05:21:11;11.70;99.90
30308;DHT22;17114;52.314;8.910;2022-11-15T05:23:38;11.60;99.90
30308;DHT22;17114;52.314;8.910;2022-11-15T05:26:06;11.60;99.90
30308;DHT22;17114;52.314;8.910;2022-11-15T05:28:35;11.60;99.90
30308;DHT22;17114;52.314;8.910;2022-11-15T05:31:03;11.60;99.90
30308;DHT22;17114;52.314;8.910;2022-11-15T05:33:31;11.60;99.90
30308;DHT22;17114;52.314;8.910;2022-11-15T05:38:32;11.60;99.90
30308;DHT22;17114;52.314;8.910;2022-11-15T05:41:02;11.60;99.90
30308;DHT22;17114;52.314;8.910;2022-11-15T05:43:29;11.60;99.90
30308;DHT22;17114;52.314;8.910;2022-11-15T05:45:57;11.50;99.90
30308;DHT22;17114;52.314;8.910;2022-11-15T05:48:25;11.50;99.90
30308;DHT22;17114;52.314;8.910;2022-11-15T05:50:52;11.50;99.90
30308;DHT22;17114;52.314;8.910;2022-11-15T05:53:19;11.40;99.90
30308;DHT22;17114;52.314;8.910;2022-11-15T05:55:48;11.50;99.90
30308;DHT22;17114;52.314;8.910;2022-11-15T05:58:15;11.50;99.90
30308;DHT22;17114;52.314;8.910;2022-11-15T06:00:42;11.50;99.90
30308;DHT22;17114;52.314;8.910;2022-11-15T06:03:09;11.50;99.90
30308;DHT22;17114;52.314;8.910;2022-11-15T06:05:37;11.40;99.90
30308;DHT22;17114;52.314;8.910;2022-11-15T06:08:04;11.40;99.90
30308;DHT22;17114;52.314;8.910;2022-11-15T06:10:32;11.50;99.90
30308;DHT22;17114;52.314;8.910;2022-11-15T06:12:59;11.50;99.90
30308;DHT22;17114;52.314;8.910;2022-11-15T06:15:27;11.50;99.90
30308;DHT22;17114;52.314;8.910;2022-11-15T06:17:57;11.50;99.90
30308;DHT22;17114;52.314;8.910;2022-11-15T06:20:28;11.50;99.90
30308;DHT22;17114;52.314;8.910;2022-11-15T06:23:02;11.50;99.90
30308;DHT22;17114;52.314;8.910;2022-11-15T06:25:29;11.50;99.90
30308;DHT22;17114;52.314;8.910;2022-11-15T06:27:57;11.50;99.90
30308;DHT22;17114;52.314;8.910;2022-11-15T06:30:25;11.50;99.90
30308;DHT22;17114;52.314;8.910;2022-11-15T06:32:58;11.50;99.90
30308;DHT22;17114;52.314;8.910;2022-11-15T06:35:25;11.50;99.90
30308;DHT22;17114;52.314;8.910;2022-11-15T06:37:52;11.50;99.90
30308;DHT22;17114;52.314;8.910;2022-11-15T06:40:19;11.50;99.90
30308;DHT22;17114;52.314;8.910;2022-11-15T06:42:45;11.50;99.90
30308;DHT22;17114;52.314;8.910;2022-11-15T06:45:12;11.60;99.90
30308;DHT22;17114;52.314;8.910;2022-11-15T06:47:46;11.60;99.90
30308;DHT22;17114;52.314;8.910;2022-11-15T06:50:13;11.60;99.90
30308;DHT22;17114;52.314;8.910;2022-11-15T06:52:40;11.70;99.90
30308;DHT22;17114;52.314;8.910;2022-11-15T06:55:08;11.80;99.90
30308;DHT22;17114;52.314;8.910;2022-11-15T06:57:35;11.80;99.90
30308;DHT22;17114;52.314;8.910;2022-11-15T07:00:05;11.80;99.90
30308;DHT22;17114;52.314;8.910;2022-11-15T07:02:33;11.90;99.90
30308;DHT22;17114;52.314;8.910;2022-11-15T07:05:00;11.90;99.90
30308;DHT22;17114;52.314;8.910;2022-11-15T07:07:26;12.00;99.90
30308;DHT22;17114;52.314;8.910;2022-11-15T07:09:53;12.10;99.90
30308;DHT22;17114;52.314;8.910;2022-11-15T07:12:20;12.10;99.90
30308;DHT22;17114;52.314;8.910;2022-11-15T07:14:47;12.20;99.90
30308;DHT22;17114;52.314;8.910;2022-11-15T07:17:14;12.30;99.90
30308;DHT22;17114;52.314;8.910;2022-11-15T07:19:41;12.30;99.90
30308;DHT22;17114;52.314;8.910;2022-11-15T07:22:08;12.30;99.90
30308;DHT22;17114;52.314;8.910;2022-11-15T07:24:35;12.40;99.90
30308;DHT22;17114;52.314;8.910;2022-11-15T07:27:02;12.40;99.90
30308;DHT22;17114;52.314;8.910;2022-11-15T07:29:29;12.40;99.90
30308;DHT22;17114;52.314;8.910;2022-11-15T07:31:56;12.40;99.90
30308;DHT22;17114;52.314;8.910;2022-11-15T07:34:23;12.40;99.90
30308;DHT22;17114;52.314;8.910;2022-11-15T07:36:50;12.50;99.90
30308;DHT22;17114;52.314;8.910;2022-11-15T07:39:17;12.60;99.90
30308;DHT22;17114;52.314;8.910;2022-11-15T07:41:44;12.70;99.90
30308;DHT22;17114;52.314;8.910;2022-11-15T07:44:12;12.90;99.90
30308;DHT22;17114;52.314;8.910;2022-11-15T07:46:39;13.00;99.90
30308;DHT22;17114;52.314;8.910;2022-11-15T07:49:06;13.10;99.90
30308;DHT22;17114;52.314;8.910;2022-11-15T07:51:33;13.10;99.90
30308;DHT22;17114;52.314;8.910;2022-11-15T07:54:00;13.20;99.90
30308;DHT22;17114;52.314;8.910;2022-11-15T07:56:27;13.20;99.90
30308;DHT22;17114;52.314;8.910;2022-11-15T07:58:54;13.30;99.90
30308;DHT22;17114;52.314;8.910;2022-11-15T08:01:21;13.30;99.90
30308;DHT22;17114;52.314;8.910;2022-11-15T08:03:48;13.40;99.90
30308;DHT22;17114;52.314;8.910;2022-11-15T08:06:16;13.40;99.90
30308;DHT22;17114;52.314;8.910;2022-11-15T08:08:43;13.50;99.90
30308;DHT22;17114;52.314;8.910;2022-11-15T08:11:10;13.50;99.90
30308;DHT22;17114;52.314;8.910;2022-11-15T08:13:37;13.50;99.90
30308;DHT22;17114;52.314;8.910;2022-11-15T08:16:04;13.60;99.90
30308;DHT22;17114;52.314;8.910;2022-11-15T08:18:32;13.80;99.90
30308;DHT22;17114;52.314;8.910;2022-11-15T08:20:59;14.20;99.90
30308;DHT22;17114;52.314;8.910;2022-11-15T08:23:27;14.40;99.90
30308;DHT22;17114;52.314;8.910;2022-11-15T08:26:04;14.70;99.90
30308;DHT22;17114;52.314;8.910;2022-11-15T08:28:31;14.90;99.90
30308;DHT22;17114;52.314;8.910;2022-11-15T08:30:58;15.10;99.90
30308;DHT22;17114;52.314;8.910;2022-11-15T08:33:25;15.10;99.90
30308;DHT22;17114;52.314;8.910;2022-11-15T08:35:55;15.10;99.90
30308;DHT22;17114;52.314;8.910;2022-11-15T08:38:22;15.10;99.90
30308;DHT22;17114;52.314;8.910;2022-11-15T08:40:53;15.10;99.90
30308;DHT22;17114;52.314;8.910;2022-11-15T08:43:26;15.00;99.90
30308;DHT22;17114;52.314;8.910;2022-11-15T08:45:55;15.00;99.90
30308;DHT22;17114;52.314;8.910;2022-11-15T08:48:22;15.20;99.90
30308;DHT22;17114;52.314;8.910;2022-11-15T08:50:53;15.30;99.90
30308;DHT22;17114;52.314;8.910;2022-11-15T08:53:20;15.60;99.90
30308;DHT22;17114;52.314;8.910;2022-11-15T08:55:47;15.80;99.90
30308;DHT22;17114;52.314;8.910;2022-11-15T08:58:14;16.00;99.90
30308;DHT22;17114;52.314;8.910;2022-11-15T09:00:41;16.20;99.90
30308;DHT22;17114;52.314;8.910;2022-11-15T09:03:08;16.40;99.90
30308;DHT22;17114;52.314;8.910;2022-11-15T09:05:36;16.80;99.90
30308;DHT22;17114;52.314;8.910;2022-11-15T09:08:04;17.00;99.90
30308;DHT22;17114;52.314;8.910;2022-11-15T09:10:51;17.20;99.90
30308;DHT22;17114;52.314;8.910;2022-11-15T09:13:18;17.60;99.90
30308;DHT22;17114;52.314;8.910;2022-11-15T09:15:45;17.80;99.90
30308;DHT22;17114;52.314;8.910;2022-11-15T09:18:12;17.90;99.90
30308;DHT22;17114;52.314;8.910;2022-11-15T09:20:39;17.50;99.90
30308;DHT22;17114;52.314;8.910;2022-11-15T09:23:06;17.30;99.90
30308;DHT22;17114;52.314;8.910;2022-11-15T09:25:33;17.10;99.90
30308;DHT22;17114;52.314;8.910;2022-11-15T09:28:00;16.80;99.90
30308;DHT22;17114;52.314;8.910;2022-11-15T09:30:27;16.70;99.90
30308;DHT22;17114;52.314;8.910;2022-11-15T09:32:54;16.50;99.90
30308;DHT22;17114;52.314;8.910;2022-11-15T09:35:21;16.70;99.90
30308;DHT22;17114;52.314;8.910;2022-11-15T09:37:48;16.70;99.90
30308;DHT22;17114;52.314;8.910;2022-11-15T09:40:21;16.90;99.90
30308;DHT22;17114;52.314;8.910;2022-11-15T09:48:26;16.90;99.90
30308;DHT22;17114;52.314;8.910;2022-11-15T09:50:58;16.80;99.90
30308;DHT22;17114;52.314;8.910;2022-11-15T09:53:36;16.70;99.90
30308;DHT22;17114;52.314;8.910;2022-11-15T09:56:28;16.80;99.90
30308;DHT22;17114;52.314;8.910;2022-11-15T10:04:27;17.20;99.90
30308;DHT22;17114;52.314;8.910;2022-11-15T10:07:14;17.40;99.90
30308;DHT22;17114;52.314;8.910;2022-11-15T10:09:44;17.30;99.90
30308;DHT22;17114;52.314;8.910;2022-11-15T10:12:13;17.10;99.90
30308;DHT22;17114;52.314;8.910;2022-11-15T10:14:41;16.90;99.90
30308;DHT22;17114;52.314;8.910;2022-11-15T10:17:30;16.90;99.90
30308;DHT22;17114;52.314;8.910;2022-11-15T10:22:35;16.70;99.90
30308;DHT22;17114;52.314;8.910;2022-11-15T10:27:35;16.70;99.90
30308;DHT22;17114;52.314;8.910;2022-11-15T10:30:03;16.60;99.90
30308;DHT22;17114;52.314;8.910;2022-11-15T10:32:30;16.50;99.90
30308;DHT22;17114;52.314;8.910;2022-11-15T10:34:59;16.50;99.90
30308;DHT22;17114;52.314;8.910;2022-11-15T10:37:42;16.30;99.90
30308;DHT22;17114;52.314;8.910;2022-11-15T10:40:19;16.40;99.90
30308;DHT22;17114;52.314;8.910;2022-11-15T10:42:46;16.50;99.90
30308;DHT22;17114;52.314;8.910;2022-11-15T10:45:30;16.50;99.90
30308;DHT22;17114;52.314;8.910;2022-11-15T10:50:41;16.80;99.90
30308;DHT22;17114;52.314;8.910;2022-11-15T10:56:02;16.90;99.90
30308;DHT22;17114;52.314;8.910;2022-11-15T10:58:31;16.90;99.90
30308;DHT22;17114;52.314;8.910;2022-11-15T11:01:13;17.00;99.90
30308;DHT22;17114;52.314;8.910;2022-11-15T11:03:41;16.80;99.90
30308;DHT22;17114;52.314;8.910;2022-11-15T11:06:10;16.90;99.90
30308;DHT22;17114;52.314;8.910;2022-11-15T11:08:38;17.00;99.90
30308;DHT22;17114;52.314;8.910;2022-11-15T11:11:06;16.80;99.90
30308;DHT22;17114;52.314;8.910;2022-11-15T11:13:38;16.80;99.90
30308;DHT22;17114;52.314;8.910;2022-11-15T11:18:44;16.80;99.90
30308;DHT22;17114;52.314;8.910;2022-11-15T11:21:15;16.80;99.90
30308;DHT22;17114;52.314;8.910;2022-11-15T11:32:29;17.10;99.90
30308;DHT22;17114;52.314;8.910;2022-11-15T11:48:10;16.50;99.90
30308;DHT22;17114;52.314;8.910;2022-11-15T11:50:40;16.50;99.90
30308;DHT22;17114;52.314;8.910;2022-11-15T11:53:14;16.40;99.90
30308;DHT22;17114;52.314;8.910;2022-11-15T11:55:46;16.40;99.90
30308;DHT22;17114;52.314;8.910;2022-11-15T11:58:19;16.40;99.90
30308;DHT22;17114;52.314;8.910;2022-11-15T12:00:47;16.40;99.90
30308;DHT22;17114;52.314;8.910;2022-11-15T12:03:22;16.40;99.90
30308;DHT22;17114;52.314;8.910;2022-11-15T12:05:53;16.30;99.90
30308;DHT22;17114;52.314;8.910;2022-11-15T12:11:12;16.20;99.90
30308;DHT22;17114;52.314;8.910;2022-11-15T12:13:40;16.20;99.90
30308;DHT22;17114;52.314;8.910;2022-11-15T12:16:11;16.10;99.90
30308;DHT22;17114;52.314;8.910;2022-11-15T12:18:46;16.00;99.90
30308;DHT22;17114;52.314;8.910;2022-11-15T12:21:16;16.00;99.90
30308;DHT22;17114;52.314;8.910;2022-11-15T12:23:56;15.90;99.90
30308;DHT22;17114;52.314;8.910;2022-11-15T12:26:26;15.90;99.90
30308;DHT22;17114;52.314;8.910;2022-11-15T12:28:55;15.90;99.90
30308;DHT22;17114;52.314;8.910;2022-11-15T12:34:01;16.00;99.90
30308;DHT22;17114;52.314;8.910;2022-11-15T12:37:06;16.10;99.90
30308;DHT22;17114;52.314;8.910;2022-11-15T12:52:03;15.90;99.90
30308;DHT22;17114;52.314;8.910;2022-11-15T13:02:18;15.50;99.90
30308;DHT22;17114;52.314;8.910;2022-11-15T13:04:46;15.50;99.90
30308;DHT22;17114;52.314;8.910;2022-11-15T13:09:59;15.40;99.90
30308;DHT22;17114;52.314;8.910;2022-11-15T13:14:58;15.20;99.90
30308;DHT22;17114;52.314;8.910;2022-11-15T13:17:26;15.20;99.90
30308;DHT22;17114;52.314;8.910;2022-11-15T13:20:07;15.10;99.90
30308;DHT22;17114;52.314;8.910;2022-11-15T13:22:41;15.10;99.90
30308;DHT22;17114;52.314;8.910;2022-11-15T13:25:32;15.00;99.90
30308;DHT22;17114;52.314;8.910;2022-11-15T13:28:18;15.00;99.90
30308;DHT22;17114;52.314;8.910;2022-11-15T13:33:17;14.90;99.90
30308;DHT22;17114;52.314;8.910;2022-11-15T13:35:46;14.80;99.90
30308;DHT22;17114;52.314;8.910;2022-11-15T13:38:33;14.80;99.90
30308;DHT22;17114;52.314;8.910;2022-11-15T13:41:11;14.70;99.90
30308;DHT22;17114;52.314;8.910;2022-11-15T13:43:38;14.70;99.90
30308;DHT22;17114;52.314;8.910;2022-11-15T13:46:13;14.60;99.90
30308;DHT22;17114;52.314;8.910;2022-11-15T13:48:41;14.60;99.90
30308;DHT22;17114;52.314;8.910;2022-11-15T13:51:17;14.60;99.90
30308;DHT22;17114;52.314;8.910;2022-11-15T13:56:23;14.60;99.90
30308;DHT22;17114;52.314;8.910;2022-11-15T13:58:50;14.50;99.90
30308;DHT22;17114;52.314;8.910;2022-11-15T14:01:18;14.60;99.90
30308;DHT22;17114;52.314;8.910;2022-11-15T14:03:48;14.60;99.90
30308;DHT22;17114;52.314;8.910;2022-11-15T14:06:17;14.60;99.90
30308;DHT22;17114;52.314;8.910;2022-11-15T14:09:03;14.70;99.90
30308;DHT22;17114;52.314;8.910;2022-11-15T14:11:30;14.70;99.90
30308;DHT22;17114;52.314;8.910;2022-11-15T14:16:40;14.70;99.90
30308;DHT22;17114;52.314;8.910;2022-11-15T14:19:50;14.70;99.90
30308;DHT22;17114;52.314;8.910;2022-11-15T14:22:17;14.70;99.90
30308;DHT22;17114;52.314;8.910;2022-11-15T14:25:03;14.70;99.90
30308;DHT22;17114;52.314;8.910;2022-11-15T14:27:32;14.60;99.90
30308;DHT22;17114;52.314;8.910;2022-11-15T14:29:59;14.60;99.90
30308;DHT22;17114;52.314;8.910;2022-11-15T14:32:27;14.60;99.90
30308;DHT22;17114;52.314;8.910;2022-11-15T14:34:56;14.60;99.90
30308;DHT22;17114;52.314;8.910;2022-11-15T14:37:25;14.60;99.90
30308;DHT22;17114;52.314;8.910;2022-11-15T14:39:53;14.60;99.90
30308;DHT22;17114;52.314;8.910;2022-11-15T14:42:21;14.50;99.90
30308;DHT22;17114;52.314;8.910;2022-11-15T14:44:48;14.60;99.90
30308;DHT22;17114;52.314;8.910;2022-11-15T14:47:15;14.50;99.90
30308;DHT22;17114;52.314;8.910;2022-11-15T14:49:43;14.50;99.90
30308;DHT22;17114;52.314;8.910;2022-11-15T14:54:58;14.40;99.90
30308;DHT22;17114;52.314;8.910;2022-11-15T14:57:26;14.40;99.90
30308;DHT22;17114;52.314;8.910;2022-11-15T14:59:53;14.30;99.90
30308;DHT22;17114;52.314;8.910;2022-11-15T15:02:23;14.20;99.90
30308;DHT22;17114;52.314;8.910;2022-11-15T15:04:51;14.20;99.90
30308;DHT22;17114;52.314;8.910;2022-11-15T15:07:18;14.10;99.90
30308;DHT22;17114;52.314;8.910;2022-11-15T15:09:45;14.10;99.90
30308;DHT22;17114;52.314;8.910;2022-11-15T15:12:20;14.10;99.90
30308;DHT22;17114;52.314;8.910;2022-11-15T15:14:50;14.00;99.90
30308;DHT22;17114;52.314;8.910;2022-11-15T15:17:17;14.00;99.90
30308;DHT22;17114;52.314;8.910;2022-11-15T15:19:44;13.90;99.90
30308;DHT22;17114;52.314;8.910;2022-11-15T15:22:13;13.80;99.90
30308;DHT22;17114;52.314;8.910;2022-11-15T15:24:41;13.80;99.90
30308;DHT22;17114;52.314;8.910;2022-11-15T15:27:08;13.70;99.90
30308;DHT22;17114;52.314;8.910;2022-11-15T15:29:35;13.60;99.90
30308;DHT22;17114;52.314;8.910;2022-11-15T15:32:02;13.60;99.90
30308;DHT22;17114;52.314;8.910;2022-11-15T15:34:29;13.60;99.90
30308;DHT22;17114;52.314;8.910;2022-11-15T15:37:07;13.50;99.90
30308;DHT22;17114;52.314;8.910;2022-11-15T15:39:34;13.50;99.90
30308;DHT22;17114;52.314;8.910;2022-11-15T15:42:01;13.50;99.90
30308;DHT22;17114;52.314;8.910;2022-11-15T15:44:28;13.50;99.90
30308;DHT22;17114;52.314;8.910;2022-11-15T15:46:55;13.50;99.90
30308;DHT22;17114;52.314;8.910;2022-11-15T15:49:24;13.50;99.90
30308;DHT22;17114;52.314;8.910;2022-11-15T15:51:52;13.40;99.90
30308;DHT22;17114;52.314;8.910;2022-11-15T15:54:19;13.40;99.90
30308;DHT22;17114;52.314;8.910;2022-11-15T15:56:46;13.30;99.90
30308;DHT22;17114;52.314;8.910;2022-11-15T15:59:20;13.30;99.90
30308;DHT22;17114;52.314;8.910;2022-11-15T16:01:47;13.30;99.90
30308;DHT22;17114;52.314;8.910;2022-11-15T16:04:14;13.30;99.90
30308;DHT22;17114;52.314;8.910;2022-11-15T16:06:41;13.40;99.90
30308;DHT22;17114;52.314;8.910;2022-11-15T16:09:15;13.30;99.90
30308;DHT22;17114;52.314;8.910;2022-11-15T16:11:44;13.30;99.90
30308;DHT22;17114;52.314;8.910;2022-11-15T16:14:11;13.30;99.90
30308;DHT22;17114;52.314;8.910;2022-11-15T16:16:38;13.30;99.90
30308;DHT22;17114;52.314;8.910;2022-11-15T16:19:05;13.30;99.90
30308;DHT22;17114;52.314;8.910;2022-11-15T16:21:33;13.30;99.90
30308;DHT22;17114;52.314;8.910;2022-11-15T16:24:00;13.30;99.90
30308;DHT22;17114;52.314;8.910;2022-11-15T16:26:28;13.30;99.90
30308;DHT22;17114;52.314;8.910;2022-11-15T16:28:57;13.30;99.90
30308;DHT22;17114;52.314;8.910;2022-11-15T16:31:24;13.20;99.90
30308;DHT22;17114;52.314;8.910;2022-11-15T16:33:51;13.20;99.90
30308;DHT22;17114;52.314;8.910;2022-11-15T16:36:19;13.20;99.90
30308;DHT22;17114;52.314;8.910;2022-11-15T16:38:55;13.20;99.90
30308;DHT22;17114;52.314;8.910;2022-11-15T16:41:22;13.10;99.90
30308;DHT22;17114;52.314;8.910;2022-11-15T16:43:49;13.10;99.90
30308;DHT22;17114;52.314;8.910;2022-11-15T16:46:26;13.20;99.90
30308;DHT22;17114;52.314;8.910;2022-11-15T16:48:53;13.10;99.90
30308;DHT22;17114;52.314;8.910;2022-11-15T16:51:21;13.20;99.90
30308;DHT22;17114;52.314;8.910;2022-11-15T16:53:49;13.20;99.90
30308;DHT22;17114;52.314;8.910;2022-11-15T16:58:49;13.10;99.90
30308;DHT22;17114;52.314;8.910;2022-11-15T17:01:18;13.10;99.90
30308;DHT22;17114;52.314;8.910;2022-11-15T17:03:46;13.10;99.90
30308;DHT22;17114;52.314;8.910;2022-11-15T17:06:13;13.10;99.90
30308;DHT22;17114;52.314;8.910;2022-11-15T17:08:40;13.10;99.90
30308;DHT22;17114;52.314;8.910;2022-11-15T17:11:07;13.00;99.90
30308;DHT22;17114;52.314;8.910;2022-11-15T17:13:35;13.00;99.90
30308;DHT22;17114;52.314;8.910;2022-11-15T17:16:05;13.00;99.90
30308;DHT22;17114;52.314;8.910;2022-11-15T17:18:33;13.00;99.90
30308;DHT22;17114;52.314;8.910;2022-11-15T17:21:05;13.00;99.90
30308;DHT22;17114;52.314;8.910;2022-11-15T17:23:32;13.00;99.90
30308;DHT22;17114;52.314;8.910;2022-11-15T17:26:00;13.00;99.90
30308;DHT22;17114;52.314;8.910;2022-11-15T17:28:53;12.90;99.90
30308;DHT22;17114;52.314;8.910;2022-11-15T17:31:20;12.90;99.90
30308;DHT22;17114;52.314;8.910;2022-11-15T17:33:47;12.90;99.90
30308;DHT22;17114;52.314;8.910;2022-11-15T17:36:14;12.80;99.90
30308;DHT22;17114;52.314;8.910;2022-11-15T17:38:41;12.80;99.90
30308;DHT22;17114;52.314;8.910;2022-11-15T17:41:09;12.70;99.90
30308;DHT22;17114;52.314;8.910;2022-11-15T17:43:37;12.70;99.90
30308;DHT22;17114;52.314;8.910;2022-11-15T17:46:05;12.60;99.90
30308;DHT22;17114;52.314;8.910;2022-11-15T17:48:32;12.60;99.90